Terminal Aerodrome Forecast
Issued by NWS Boise, ID

Home | Current Version | Previous Version | Text Only | Print | Product List | Glossary On
Versions: 1 2 3 4 5 6 7 8 9 10 11 12 13 14 15 16 17 18 19 20 21 22 23 24 25
000
FTUS45 KBOI 280523
TAFBNO
TAF
KBNO 280523Z 2806/2906 27005KT P6SM SCT250
     FM281200 VRB03KT P6SM SCT250
     FM281800 19010G18KT P6SM BKN250
     FM290400 VRB05KT P6SM OVC250=

USA.gov is the U.S. government's official web portal to all federal, state and local government web resources and services.